createdAt,value
2019-03-18T00:01:22.357Z,100.00
2019-03-18T00:03:54.118Z,100.00
2019-03-18T00:06:25.996Z,100.00
2019-03-18T00:08:59.899Z,100.00
2019-03-18T00:11:31.931Z,100.00
2019-03-18T00:14:03.851Z,100.00
2019-03-18T00:16:35.841Z,100.00
2019-03-18T00:19:07.577Z,100.00
2019-03-18T00:21:39.393Z,100.00
2019-03-18T00:24:11.193Z,100.00
2019-03-18T00:26:42.978Z,100.00
2019-03-18T00:29:14.791Z,100.00
2019-03-18T00:31:48.099Z,100.00
2019-03-18T00:34:19.948Z,100.00
2019-03-18T00:36:51.829Z,100.00
2019-03-18T00:39:26.326Z,100.00
2019-03-18T00:41:58.171Z,100.00
2019-03-18T00:44:29.969Z,100.00
2019-03-18T00:47:01.745Z,100.00
2019-03-18T00:49:33.580Z,100.00
2019-03-18T00:52:05.297Z,100.00
2019-03-18T00:54:37.098Z,100.00
2019-03-18T00:57:09.971Z,100.00
2019-03-18T00:59:41.712Z,100.00
2019-03-18T01:02:16.630Z,100.00
2019-03-18T01:04:48.430Z,100.00
2019-03-18T01:07:20.493Z,100.00
2019-03-18T01:09:52.420Z,100.00
2019-03-18T01:12:24.113Z,100.00
2019-03-18T01:14:55.852Z,100.00
2019-03-18T01:17:27.956Z,100.00
2019-03-18T01:19:59.634Z,100.00
2019-03-18T01:22:31.315Z,100.00
2019-03-18T01:25:03.099Z,100.00
2019-03-18T01:27:36.155Z,100.00
2019-03-18T01:30:09.328Z,100.00
2019-03-18T01:32:40.922Z,100.00
2019-03-18T01:35:15.020Z,100.00
2019-03-18T01:37:46.721Z,100.00
2019-03-18T01:40:18.509Z,100.00
2019-03-18T01:42:50.260Z,100.00
2019-03-18T01:45:21.983Z,100.00
2019-03-18T01:47:54.019Z,100.00
2019-03-18T01:50:25.892Z,100.00
2019-03-18T01:52:57.626Z,100.00
2019-03-18T01:55:30.450Z,100.00
2019-03-18T01:58:02.320Z,100.00
2019-03-18T02:00:35.193Z,100.00
2019-03-18T02:03:07.178Z,100.00
2019-03-18T02:05:39.477Z,100.00
2019-03-18T02:08:11.311Z,100.00
2019-03-18T02:10:43.177Z,100.00
2019-03-18T02:13:14.973Z,100.00
2019-03-18T02:15:53.140Z,100.00
2019-03-18T02:18:20.177Z,100.00
2019-03-18T02:20:54.553Z,100.00
2019-03-18T02:23:26.290Z,100.00
2019-03-18T02:25:58.124Z,100.00
2019-03-18T02:28:29.953Z,100.00
2019-03-18T02:31:01.646Z,100.00
2019-03-18T02:33:33.438Z,100.00
2019-03-18T02:36:05.506Z,100.00
2019-03-18T02:38:37.379Z,100.00
2019-03-18T02:41:09.392Z,100.00
2019-03-18T02:43:41.095Z,100.00
2019-03-18T02:46:12.992Z,100.00
2019-03-18T02:48:44.669Z,100.00
2019-03-18T02:51:16.538Z,100.00
2019-03-18T02:53:49.215Z,100.00
2019-03-18T02:56:20.825Z,100.00
2019-03-18T02:58:52.513Z,100.00
2019-03-18T03:01:24.249Z,100.00
2019-03-18T03:03:56.171Z,100.00
2019-03-18T03:06:27.894Z,100.00
2019-03-18T03:08:59.722Z,100.00
2019-03-18T03:11:34.342Z,100.00
2019-03-18T03:14:05.151Z,100.00
2019-03-18T03:16:39.373Z,100.00
2019-03-18T03:19:11.117Z,100.00
2019-03-18T03:21:42.893Z,100.00
2019-03-18T03:24:14.493Z,100.00
2019-03-18T03:26:46.421Z,100.00
2019-03-18T03:29:18.250Z,100.00
2019-03-18T03:31:51.572Z,100.00
2019-03-18T03:34:23.393Z,100.00
2019-03-18T03:36:55.315Z,100.00
2019-03-18T03:39:27.269Z,100.00
2019-03-18T03:41:59.178Z,100.00
2019-03-18T03:44:30.928Z,100.00
2019-03-18T03:47:02.837Z,100.00
2019-03-18T03:49:34.816Z,100.00
2019-03-18T03:52:08.894Z,100.00
2019-03-18T03:54:40.842Z,100.00
2019-03-18T03:57:12.718Z,100.00
2019-03-18T03:59:46.174Z,100.00
2019-03-18T04:02:20.204Z,100.00
2019-03-18T04:04:51.030Z,100.00
2019-03-18T04:07:22.927Z,100.00
2019-03-18T04:09:57.836Z,100.00
2019-03-18T04:12:29.603Z,100.00
2019-03-18T04:15:01.398Z,100.00
2019-03-18T04:17:33.175Z,100.00
2019-03-18T04:20:05.012Z,100.00
2019-03-18T04:22:36.770Z,100.00
2019-03-18T04:25:10.998Z,100.00
2019-03-18T04:27:42.779Z,100.00
2019-03-18T04:30:14.836Z,100.00
2019-03-18T04:32:46.663Z,100.00
2019-03-18T04:35:18.870Z,100.00
2019-03-18T04:37:50.541Z,100.00
2019-03-18T04:40:22.443Z,100.00
2019-03-18T04:42:54.906Z,100.00
2019-03-18T04:45:26.941Z,100.00
2019-03-18T04:47:58.816Z,100.00
2019-03-18T04:50:30.685Z,100.00
2019-03-18T04:53:02.567Z,100.00
2019-03-18T04:55:34.341Z,100.00
2019-03-18T04:58:06.172Z,100.00
2019-03-18T05:00:46.057Z,100.00
2019-03-18T05:03:17.777Z,100.00
2019-03-18T05:05:49.759Z,100.00
2019-03-18T05:08:21.485Z,100.00
2019-03-18T05:10:54.543Z,100.00
2019-03-18T05:13:28.513Z,100.00
2019-03-18T05:16:00.352Z,100.00
2019-03-18T05:18:32.170Z,100.00
2019-03-18T05:21:03.911Z,100.00
2019-03-18T05:23:35.869Z,100.00
2019-03-18T05:26:07.689Z,100.00
2019-03-18T05:28:39.491Z,100.00
2019-03-18T05:31:11.265Z,100.00
2019-03-18T05:33:43.133Z,100.00
2019-03-18T05:36:14.934Z,100.00
2019-03-18T05:38:46.844Z,100.00
2019-03-18T05:41:18.758Z,100.00
2019-03-18T05:43:50.665Z,100.00
2019-03-18T05:46:22.450Z,100.00
2019-03-18T05:48:54.189Z,100.00
2019-03-18T05:51:25.894Z,100.00
2019-03-18T05:53:57.565Z,100.00
2019-03-18T05:56:29.509Z,99.14
2019-03-18T05:59:01.317Z,98.33
2019-03-18T06:01:33.189Z,97.56
2019-03-18T06:04:05.049Z,95.05
2019-03-18T06:06:37.033Z,94.24
2019-03-18T06:09:09.212Z,93.46
2019-03-18T06:11:41.077Z,93.03
2019-03-18T06:14:12.885Z,90.54
2019-03-18T06:16:44.870Z,90.40
2019-03-18T06:19:19.848Z,88.81
2019-03-18T06:21:51.670Z,89.82
2019-03-18T06:24:23.318Z,87.90
2019-03-18T06:26:55.171Z,86.96
2019-03-18T06:29:28.161Z,85.05
2019-03-18T06:32:00.013Z,85.39
2019-03-18T06:34:31.864Z,81.93
2019-03-18T06:37:03.640Z,81.74
2019-03-18T06:39:35.365Z,81.75
2019-03-18T06:42:07.189Z,81.00
2019-03-18T06:44:38.882Z,79.62
2019-03-18T06:47:11.286Z,80.19
2019-03-18T06:49:43.144Z,79.84
2019-03-18T06:52:14.955Z,78.25
2019-03-18T06:54:47.062Z,76.95
2019-03-18T06:57:18.944Z,75.26
2019-03-18T06:59:53.724Z,77.27
2019-03-18T07:02:25.640Z,75.99
2019-03-18T07:04:57.333Z,75.27
2019-03-18T07:07:29.108Z,78.42
2019-03-18T07:10:00.899Z,75.44
2019-03-18T07:12:33.540Z,76.15
2019-03-18T07:15:05.519Z,77.43
2019-03-18T07:17:37.502Z,78.65
2019-03-18T07:20:10.137Z,74.37
2019-03-18T07:22:42.079Z,74.31
2019-03-18T07:25:16.837Z,73.68
2019-03-18T07:27:48.618Z,73.45
2019-03-18T07:30:20.440Z,73.92
2019-03-18T07:32:52.300Z,71.92
2019-03-18T07:35:24.047Z,71.00
2019-03-18T07:37:55.755Z,71.78
2019-03-18T07:40:29.071Z,70.18
2019-03-18T07:43:00.840Z,69.83
2019-03-18T07:45:32.595Z,69.01
2019-03-18T07:48:06.492Z,71.53
2019-03-18T07:50:38.702Z,71.37
2019-03-18T07:53:10.417Z,71.22
2019-03-18T07:55:42.189Z,69.95
2019-03-18T07:58:13.965Z,69.78
2019-03-18T08:00:45.970Z,69.02
2019-03-18T08:03:18.007Z,69.14
2019-03-18T08:05:49.768Z,69.14
2019-03-18T08:08:21.544Z,69.89
2019-03-18T08:10:53.416Z,69.29
2019-03-18T08:13:25.271Z,69.68
2019-03-18T08:15:57.364Z,67.49
2019-03-18T08:18:29.252Z,67.72
2019-03-18T08:21:08.149Z,65.79
2019-03-18T08:23:40.502Z,61.09
2019-03-18T08:26:13.697Z,62.68
2019-03-18T08:28:45.465Z,61.11
2019-03-18T08:31:18.614Z,64.04
2019-03-18T08:33:50.588Z,63.89
2019-03-18T08:36:22.603Z,58.96
2019-03-18T08:38:54.385Z,59.47
2019-03-18T08:41:26.157Z,58.40
2019-03-18T08:43:57.949Z,58.80
2019-03-18T08:46:29.872Z,57.90
2019-03-18T08:49:01.754Z,58.27
2019-03-18T08:51:34.147Z,57.78
2019-03-18T08:54:06.011Z,60.26
2019-03-18T08:56:37.946Z,56.56
2019-03-18T08:59:10.233Z,57.68
2019-03-18T09:01:43.752Z,56.50
2019-03-18T09:04:19.117Z,58.12
2019-03-18T09:06:53.795Z,55.76
2019-03-18T09:09:25.648Z,57.61
2019-03-18T09:11:57.455Z,55.53
2019-03-18T09:14:30.487Z,55.52
2019-03-18T09:17:02.306Z,53.88
2019-03-18T09:19:37.827Z,55.49
2019-03-18T09:22:09.568Z,52.54
2019-03-18T09:24:41.448Z,53.46
2019-03-18T09:27:14.816Z,53.22
2019-03-18T09:29:49.211Z,51.72
2019-03-18T09:32:21.095Z,51.64
2019-03-18T09:34:54.776Z,50.36
2019-03-18T09:37:26.595Z,51.60
2019-03-18T09:39:58.413Z,52.30
2019-03-18T09:42:31.333Z,51.75
2019-03-18T09:45:03.177Z,53.21
2019-03-18T09:47:35.322Z,53.71
2019-03-18T09:50:07.744Z,52.31
2019-03-18T09:52:39.612Z,51.42
2019-03-18T09:55:11.444Z,49.06
2019-03-18T09:57:43.155Z,50.50
2019-03-18T10:00:15.723Z,50.55
2019-03-18T10:02:48.581Z,49.95
2019-03-18T10:05:22.680Z,50.55
2019-03-18T10:07:54.528Z,49.97
2019-03-18T10:10:26.693Z,50.54
2019-03-18T10:12:58.972Z,50.53
2019-03-18T10:15:35.001Z,50.63
2019-03-18T10:18:07.012Z,51.00
2019-03-18T10:20:41.180Z,48.94
2019-03-18T10:23:14.621Z,47.35
2019-03-18T10:25:46.334Z,47.64
2019-03-18T10:28:19.437Z,45.92
2019-03-18T10:30:51.306Z,47.05
2019-03-18T10:33:24.377Z,49.60
2019-03-18T10:35:56.200Z,45.05
2019-03-18T10:38:28.005Z,46.26
2019-03-18T10:40:59.971Z,44.24
2019-03-18T10:43:31.816Z,46.39
2019-03-18T10:46:03.579Z,46.79
2019-03-18T10:48:35.465Z,48.29
2019-03-18T10:51:08.424Z,46.02
2019-03-18T10:53:41.398Z,44.59
2019-03-18T10:56:15.796Z,45.57
2019-03-18T10:58:47.609Z,48.17
2019-03-18T11:01:19.422Z,47.74
2019-03-18T11:03:51.121Z,48.75
2019-03-18T11:06:23.360Z,49.69
2019-03-18T11:08:55.165Z,49.26
2019-03-18T11:11:27.047Z,49.32
2019-03-18T11:13:58.930Z,50.43
2019-03-18T11:16:31.466Z,51.71
2019-03-18T11:19:05.300Z,53.53
2019-03-18T11:21:37.063Z,52.21
2019-03-18T11:24:08.933Z,53.65
2019-03-18T11:26:42.760Z,51.58
2019-03-18T11:29:16.438Z,52.83
2019-03-18T11:31:48.161Z,50.61
2019-03-18T11:34:21.423Z,49.71
2019-03-18T11:36:53.146Z,50.69
2019-03-18T11:39:25.756Z,51.18
2019-03-18T11:41:57.623Z,50.88
2019-03-18T11:44:29.484Z,52.96
2019-03-18T11:47:01.272Z,51.69
2019-03-18T11:49:39.689Z,52.51
2019-03-18T11:52:07.440Z,51.62
2019-03-18T11:54:39.335Z,51.79
2019-03-18T11:57:12.080Z,51.51
2019-03-18T11:59:46.743Z,52.50
2019-03-18T12:02:27.647Z,53.73
2019-03-18T12:04:54.175Z,54.96
2019-03-18T12:07:27.987Z,54.61
2019-03-18T12:10:01.408Z,54.59
2019-03-18T12:12:33.666Z,55.96
2019-03-18T12:15:05.974Z,57.56
2019-03-18T12:17:37.938Z,58.87
2019-03-18T12:20:23.177Z,59.75
2019-03-18T12:22:47.470Z,61.02
2019-03-18T12:25:19.419Z,61.10
2019-03-18T12:27:51.359Z,61.23
2019-03-18T12:30:23.474Z,62.66
2019-03-18T12:32:55.871Z,62.63
2019-03-18T12:35:27.773Z,62.44
2019-03-18T12:37:59.852Z,64.49
2019-03-18T12:40:31.758Z,64.59
2019-03-18T12:43:04.767Z,64.13
2019-03-18T12:45:36.660Z,64.79
2019-03-18T12:48:08.397Z,65.69
2019-03-18T12:50:55.020Z,65.45
2019-03-18T12:53:14.758Z,65.84
2019-03-18T12:55:48.133Z,64.52
2019-03-18T12:58:22.859Z,66.37
2019-03-18T13:00:54.714Z,66.32
2019-03-18T13:03:27.108Z,65.88
2019-03-18T13:05:59.011Z,65.73
2019-03-18T13:08:31.476Z,66.84
2019-03-18T13:11:03.302Z,66.98
2019-03-18T13:13:35.814Z,65.52
2019-03-18T13:16:07.634Z,65.56
2019-03-18T13:18:39.499Z,64.83
2019-03-18T13:21:13.261Z,64.22
2019-03-18T13:23:48.645Z,64.50
2019-03-18T13:26:20.417Z,63.07
2019-03-18T13:28:52.312Z,62.65
2019-03-18T13:31:24.302Z,62.40
2019-03-18T13:33:55.987Z,62.33
2019-03-18T13:36:28.437Z,61.26
2019-03-18T13:39:00.237Z,61.21
2019-03-18T13:41:32.038Z,60.24
2019-03-18T13:44:04.448Z,59.82
2019-03-18T13:46:37.647Z,60.05
2019-03-18T13:49:09.577Z,59.37
2019-03-18T13:51:41.333Z,59.06
2019-03-18T13:54:13.140Z,59.84
2019-03-18T13:56:46.597Z,60.61
2019-03-18T13:59:20.891Z,61.59
2019-03-18T14:01:52.694Z,62.46
2019-03-18T14:04:24.685Z,62.75
2019-03-18T14:06:56.557Z,64.28
2019-03-18T14:09:28.904Z,65.65
2019-03-18T14:12:06.149Z,66.15
2019-03-18T14:14:39.396Z,65.84
2019-03-18T14:17:14.004Z,66.39
2019-03-18T14:19:48.936Z,66.83
2019-03-18T14:22:23.316Z,68.17
2019-03-18T14:24:55.796Z,68.58
2019-03-18T14:27:28.844Z,69.36
2019-03-18T14:30:01.944Z,69.34
2019-03-18T14:32:35.242Z,69.69
2019-03-18T14:35:08.720Z,70.64
2019-03-18T14:37:42.592Z,71.76
2019-03-18T14:40:21.826Z,72.73
2019-03-18T14:43:17.091Z,73.13
2019-03-18T14:45:49.726Z,73.61
2019-03-18T14:48:23.783Z,74.18
2019-03-18T14:50:55.618Z,75.54
2019-03-18T14:53:27.529Z,75.63
2019-03-18T14:55:59.422Z,78.12
2019-03-18T14:58:32.170Z,78.43
2019-03-18T15:01:05.991Z,78.73
2019-03-18T15:03:38.479Z,77.97
2019-03-18T15:06:11.448Z,78.00
2019-03-18T15:08:44.497Z,78.67
2019-03-18T15:11:18.699Z,79.04
2019-03-18T15:13:51.496Z,80.01
2019-03-18T15:16:24.509Z,81.00
2019-03-18T15:18:58.845Z,81.70
2019-03-18T15:21:34.043Z,81.35
2019-03-18T15:24:16.822Z,82.11
2019-03-18T15:26:44.343Z,82.69
2019-03-18T15:29:16.310Z,84.24
2019-03-18T15:31:48.244Z,85.00
2019-03-18T15:34:19.968Z,85.31
2019-03-18T15:36:51.928Z,85.76
2019-03-18T15:39:24.911Z,86.81
2019-03-18T15:41:56.762Z,87.42
2019-03-18T15:44:29.078Z,88.70
2019-03-18T15:47:01.673Z,89.58
2019-03-18T15:49:33.641Z,90.79
2019-03-18T15:52:10.939Z,91.20
2019-03-18T15:54:53.145Z,92.64
2019-03-18T15:57:15.652Z,94.00
2019-03-18T15:59:48.332Z,96.04
2019-03-18T16:02:21.586Z,96.48
2019-03-18T16:04:55.463Z,96.71
2019-03-18T16:07:28.277Z,98.06
2019-03-18T16:10:01.020Z,99.67
2019-03-18T16:12:33.294Z,100.00
2019-03-18T16:15:05.441Z,100.00
2019-03-18T16:17:41.289Z,100.00
2019-03-18T16:20:13.431Z,100.00
2019-03-18T16:22:46.816Z,100.00
2019-03-18T16:25:21.516Z,100.00
2019-03-18T16:27:56.322Z,100.00
2019-03-18T16:30:29.702Z,100.00
2019-03-18T16:33:01.428Z,100.00
2019-03-18T16:35:33.093Z,100.00
2019-03-18T16:38:05.280Z,100.00
2019-03-18T16:40:37.111Z,100.00
2019-03-18T16:45:39.493Z,100.00
2019-03-18T16:48:15.637Z,100.00
2019-03-18T16:50:47.400Z,100.00
2019-03-18T16:53:20.969Z,100.00
2019-03-18T16:55:52.679Z,100.00
2019-03-18T16:58:25.156Z,100.00
2019-03-18T17:00:57.650Z,100.00
2019-03-18T17:03:29.500Z,100.00
2019-03-18T17:06:02.785Z,100.00
2019-03-18T17:08:35.331Z,100.00
2019-03-18T17:11:09.341Z,100.00
2019-03-18T17:13:42.770Z,100.00
2019-03-18T17:16:21.691Z,100.00
2019-03-18T17:18:54.362Z,100.00
2019-03-18T17:21:26.307Z,100.00
2019-03-18T17:23:58.812Z,100.00
2019-03-18T17:26:30.674Z,100.00
2019-03-18T17:29:05.653Z,100.00
2019-03-18T17:31:37.557Z,100.00
2019-03-18T17:34:09.414Z,100.00
2019-03-18T17:36:42.359Z,100.00
2019-03-18T17:39:16.132Z,100.00
2019-03-18T17:41:47.941Z,100.00
2019-03-18T17:44:19.789Z,100.00
2019-03-18T17:46:52.316Z,100.00
2019-03-18T17:49:24.199Z,100.00
2019-03-18T17:51:56.107Z,100.00
2019-03-18T17:54:28.101Z,100.00
2019-03-18T17:57:07.036Z,100.00
2019-03-18T17:59:35.274Z,100.00
2019-03-18T18:02:07.109Z,100.00
2019-03-18T18:04:40.142Z,100.00
2019-03-18T18:07:12.131Z,100.00
2019-03-18T18:09:44.784Z,100.00
2019-03-18T18:12:17.103Z,100.00
2019-03-18T18:14:50.710Z,100.00
2019-03-18T18:17:23.020Z,100.00
2019-03-18T18:19:56.258Z,100.00
2019-03-18T18:22:28.227Z,100.00
2019-03-18T18:25:00.523Z,100.00
2019-03-18T18:27:37.288Z,100.00
2019-03-18T18:30:13.287Z,100.00
2019-03-18T18:32:45.312Z,100.00
2019-03-18T18:35:17.333Z,100.00
2019-03-18T18:37:49.354Z,100.00
2019-03-18T18:40:21.263Z,100.00
2019-03-18T18:42:53.619Z,100.00
2019-03-18T18:45:25.356Z,100.00
2019-03-18T18:48:00.908Z,100.00
2019-03-18T18:50:32.824Z,100.00
2019-03-18T18:53:06.856Z,100.00
2019-03-18T18:55:38.635Z,100.00
2019-03-18T18:58:11.943Z,100.00
2019-03-18T19:00:43.774Z,100.00
2019-03-18T19:03:15.605Z,100.00
2019-03-18T19:05:47.570Z,100.00
2019-03-18T19:08:19.306Z,100.00
2019-03-18T19:10:51.608Z,100.00
2019-03-18T19:13:23.388Z,100.00
2019-03-18T19:15:56.888Z,100.00
2019-03-18T19:18:37.718Z,100.00
2019-03-18T19:21:05.732Z,100.00
2019-03-18T19:23:38.280Z,100.00
2019-03-18T19:26:11.192Z,100.00
2019-03-18T19:28:43.039Z,100.00
2019-03-18T19:31:14.987Z,100.00
2019-03-18T19:33:56.641Z,100.00
2019-03-18T19:36:28.593Z,100.00
2019-03-18T19:39:00.416Z,100.00
2019-03-18T19:41:34.884Z,100.00
2019-03-18T19:44:06.839Z,100.00
2019-03-18T19:46:39.268Z,100.00
2019-03-18T19:49:11.198Z,100.00
2019-03-18T19:51:42.951Z,100.00
2019-03-18T19:54:15.319Z,100.00
2019-03-18T19:56:47.231Z,100.00
2019-03-18T19:59:22.615Z,100.00
2019-03-18T20:01:56.466Z,100.00
2019-03-18T20:04:28.345Z,100.00
2019-03-18T20:07:00.997Z,100.00
2019-03-18T20:09:32.794Z,100.00
2019-03-18T20:12:05.060Z,100.00
2019-03-18T20:14:39.632Z,100.00
2019-03-18T20:17:11.368Z,100.00
2019-03-18T20:19:43.448Z,100.00
2019-03-18T20:22:15.118Z,100.00
2019-03-18T20:24:49.646Z,100.00
2019-03-18T20:27:21.829Z,100.00
2019-03-18T20:29:54.089Z,100.00
2019-03-18T20:32:25.988Z,100.00
2019-03-18T20:34:57.727Z,100.00
2019-03-18T20:37:30.698Z,100.00
2019-03-18T20:40:02.656Z,100.00
2019-03-18T20:42:34.400Z,100.00
2019-03-18T20:45:06.700Z,100.00
2019-03-18T20:47:39.495Z,100.00
2019-03-18T20:50:13.107Z,100.00
2019-03-18T20:52:45.428Z,100.00
2019-03-18T20:55:19.427Z,100.00
2019-03-18T20:57:51.089Z,100.00
2019-03-18T21:00:23.452Z,100.00
2019-03-18T21:02:58.106Z,100.00
2019-03-18T21:05:30.096Z,100.00
2019-03-18T21:08:03.923Z,100.00
2019-03-18T21:10:35.702Z,100.00
2019-03-18T21:13:07.403Z,100.00
2019-03-18T21:15:39.138Z,100.00
2019-03-18T21:18:11.951Z,100.00
2019-03-18T21:20:43.537Z,100.00
2019-03-18T21:23:15.163Z,100.00
2019-03-18T21:25:46.659Z,100.00
2019-03-18T21:28:18.456Z,100.00
2019-03-18T21:30:51.892Z,100.00
2019-03-18T21:33:23.336Z,100.00
2019-03-18T21:35:58.189Z,100.00
2019-03-18T21:38:29.666Z,100.00
2019-03-18T21:41:02.629Z,100.00
2019-03-18T21:43:34.375Z,100.00
2019-03-18T21:46:06.954Z,100.00
2019-03-18T21:48:39.245Z,100.00
2019-03-18T21:51:11.001Z,100.00
2019-03-18T21:53:45.237Z,100.00
2019-03-18T21:56:16.969Z,100.00
2019-03-18T21:58:49.076Z,100.00
2019-03-18T22:01:23.352Z,100.00
2019-03-18T22:03:55.191Z,100.00
2019-03-18T22:06:28.521Z,100.00
2019-03-18T22:09:00.356Z,100.00
2019-03-18T22:11:32.579Z,100.00
2019-03-18T22:14:27.340Z,100.00
2019-03-18T22:16:59.300Z,100.00
2019-03-18T22:19:31.056Z,100.00
2019-03-18T22:22:06.406Z,100.00
2019-03-18T22:24:45.352Z,100.00
2019-03-18T22:27:13.112Z,100.00
2019-03-18T22:29:44.809Z,100.00
2019-03-18T22:32:16.671Z,100.00
2019-03-18T22:34:49.933Z,100.00
2019-03-18T22:37:21.662Z,100.00
2019-03-18T22:39:53.609Z,100.00
2019-03-18T22:42:25.362Z,100.00
2019-03-18T22:44:57.085Z,100.00
2019-03-18T22:47:28.767Z,100.00
2019-03-18T22:50:00.616Z,100.00
2019-03-18T22:52:32.543Z,100.00
2019-03-18T22:55:04.493Z,100.00
2019-03-18T22:57:36.208Z,100.00
2019-03-18T23:00:17.673Z,100.00
2019-03-18T23:02:51.084Z,100.00
2019-03-18T23:05:23.051Z,100.00
2019-03-18T23:07:54.990Z,100.00
2019-03-18T23:10:26.744Z,100.00
2019-03-18T23:12:58.467Z,100.00
2019-03-18T23:15:32.216Z,100.00
2019-03-18T23:18:04.094Z,100.00
2019-03-18T23:20:35.867Z,100.00
2019-03-18T23:23:07.589Z,100.00
2019-03-18T23:25:39.294Z,100.00
2019-03-18T23:28:11.224Z,100.00
2019-03-18T23:30:43.017Z,100.00
2019-03-18T23:33:14.912Z,100.00
2019-03-18T23:35:46.771Z,100.00
2019-03-18T23:38:19.049Z,100.00
2019-03-18T23:40:52.038Z,100.00
2019-03-18T23:43:26.509Z,100.00
2019-03-18T23:45:58.395Z,100.00
2019-03-18T23:48:30.669Z,100.00
2019-03-18T23:51:04.602Z,100.00
2019-03-18T23:53:38.485Z,100.00
2019-03-18T23:56:11.532Z,100.00
2019-03-18T23:58:43.374Z,100.00
